sensor_id;sensor_type;location;lat;lon;timestamp;temperature;humidity
19389;DHT22;9830;41.876;23.474;2023-02-28T00:02:15;6.80;99.90
19389;DHT22;9830;41.876;23.474;2023-02-28T00:04:43;6.90;99.90
19389;DHT22;9830;41.876;23.474;2023-02-28T00:07:09;6.90;99.90
19389;DHT22;9830;41.876;23.474;2023-02-28T00:09:34;7.00;99.90
19389;DHT22;9830;41.876;23.474;2023-02-28T00:12:00;6.90;99.90
19389;DHT22;9830;41.876;23.474;2023-02-28T00:14:38;6.80;99.90
19389;DHT22;9830;41.876;23.474;2023-02-28T00:17:03;6.80;99.90
19389;DHT22;9830;41.876;23.474;2023-02-28T00:19:29;6.80;99.90
19389;DHT22;9830;41.876;23.474;2023-02-28T00:21:55;6.80;99.90
19389;DHT22;9830;41.876;23.474;2023-02-28T00:24:20;6.80;99.90
19389;DHT22;9830;41.876;23.474;2023-02-28T00:26:46;6.70;99.90
19389;DHT22;9830;41.876;23.474;2023-02-28T00:29:12;6.70;99.90
19389;DHT22;9830;41.876;23.474;2023-02-28T00:31:37;6.60;99.90
19389;DHT22;9830;41.876;23.474;2023-02-28T00:34:03;6.60;99.90
19389;DHT22;9830;41.876;23.474;2023-02-28T00:36:28;6.60;99.90
19389;DHT22;9830;41.876;23.474;2023-02-28T00:38:54;6.50;99.90
19389;DHT22;9830;41.876;23.474;2023-02-28T00:41:20;6.40;99.90
19389;DHT22;9830;41.876;23.474;2023-02-28T00:43:46;6.30;99.90
19389;DHT22;9830;41.876;23.474;2023-02-28T00:46:12;6.30;99.90
19389;DHT22;9830;41.876;23.474;2023-02-28T00:48:37;6.30;99.90
19389;DHT22;9830;41.876;23.474;2023-02-28T00:51:03;6.30;99.90
19389;DHT22;9830;41.876;23.474;2023-02-28T00:53:29;6.20;99.90
19389;DHT22;9830;41.876;23.474;2023-02-28T00:55:55;6.10;99.90
19389;DHT22;9830;41.876;23.474;2023-02-28T00:58:21;6.10;99.90
19389;DHT22;9830;41.876;23.474;2023-02-28T01:00:47;6.10;99.90
19389;DHT22;9830;41.876;23.474;2023-02-28T01:03:18;6.00;99.90
19389;DHT22;9830;41.876;23.474;2023-02-28T01:05:44;6.00;99.90
19389;DHT22;9830;41.876;23.474;2023-02-28T01:08:10;5.90;99.90
19389;DHT22;9830;41.876;23.474;2023-02-28T01:10:36;5.80;99.90
19389;DHT22;9830;41.876;23.474;2023-02-28T01:13:02;5.70;99.90
19389;DHT22;9830;41.876;23.474;2023-02-28T01:15:28;5.70;99.90
19389;DHT22;9830;41.876;23.474;2023-02-28T01:17:54;5.60;99.90
19389;DHT22;9830;41.876;23.474;2023-02-28T01:20:19;5.50;99.90
19389;DHT22;9830;41.876;23.474;2023-02-28T01:22:45;5.60;99.90
19389;DHT22;9830;41.876;23.474;2023-02-28T01:25:12;5.50;99.90
19389;DHT22;9830;41.876;23.474;2023-02-28T01:27:38;5.50;99.90
19389;DHT22;9830;41.876;23.474;2023-02-28T01:30:06;5.40;99.90
19389;DHT22;9830;41.876;23.474;2023-02-28T01:32:32;5.40;99.90
19389;DHT22;9830;41.876;23.474;2023-02-28T01:34:57;5.30;99.90
19389;DHT22;9830;41.876;23.474;2023-02-28T01:37:23;5.20;99.90
19389;DHT22;9830;41.876;23.474;2023-02-28T01:39:49;5.20;99.90
19389;DHT22;9830;41.876;23.474;2023-02-28T01:42:15;5.10;99.90
19389;DHT22;9830;41.876;23.474;2023-02-28T01:47:41;5.10;99.90
19389;DHT22;9830;41.876;23.474;2023-02-28T01:50:13;5.00;99.90
19389;DHT22;9830;41.876;23.474;2023-02-28T01:52:40;5.00;99.90
19389;DHT22;9830;41.876;23.474;2023-02-28T01:55:07;5.00;99.90
19389;DHT22;9830;41.876;23.474;2023-02-28T01:57:36;4.90;99.90
19389;DHT22;9830;41.876;23.474;2023-02-28T02:00:13;4.90;99.90
19389;DHT22;9830;41.876;23.474;2023-02-28T02:02:46;4.90;99.90
19389;DHT22;9830;41.876;23.474;2023-02-28T02:05:16;4.90;99.90
19389;DHT22;9830;41.876;23.474;2023-02-28T02:07:44;4.90;99.90
19389;DHT22;9830;41.876;23.474;2023-02-28T02:10:14;4.80;99.90
19389;DHT22;9830;41.876;23.474;2023-02-28T02:15:39;4.70;99.90
19389;DHT22;9830;41.876;23.474;2023-02-28T02:18:18;4.60;99.90
19389;DHT22;9830;41.876;23.474;2023-02-28T02:26:39;4.40;99.90
19389;DHT22;9830;41.876;23.474;2023-02-28T02:38:06;4.30;99.90
19389;DHT22;9830;41.876;23.474;2023-02-28T02:40:37;4.20;99.90
19389;DHT22;9830;41.876;23.474;2023-02-28T02:43:18;4.20;99.90
19389;DHT22;9830;41.876;23.474;2023-02-28T02:45:55;4.20;99.90
19389;DHT22;9830;41.876;23.474;2023-02-28T02:48:26;4.10;99.90
19389;DHT22;9830;41.876;23.474;2023-02-28T02:50:58;4.10;99.90
19389;DHT22;9830;41.876;23.474;2023-02-28T02:53:34;3.90;99.90
19389;DHT22;9830;41.876;23.474;2023-02-28T02:56:03;3.90;99.90
19389;DHT22;9830;41.876;23.474;2023-02-28T02:58:35;3.90;99.90
19389;DHT22;9830;41.876;23.474;2023-02-28T03:01:08;3.80;99.90
19389;DHT22;9830;41.876;23.474;2023-02-28T03:03:35;3.60;99.90
19389;DHT22;9830;41.876;23.474;2023-02-28T03:06:02;3.70;99.90
19389;DHT22;9830;41.876;23.474;2023-02-28T03:08:31;3.70;99.90
19389;DHT22;9830;41.876;23.474;2023-02-28T03:11:09;3.70;99.90
19389;DHT22;9830;41.876;23.474;2023-02-28T03:16:54;3.60;99.90
19389;DHT22;9830;41.876;23.474;2023-02-28T03:19:44;3.60;99.90
19389;DHT22;9830;41.876;23.474;2023-02-28T03:22:30;3.60;99.90
19389;DHT22;9830;41.876;23.474;2023-02-28T03:27:53;3.60;99.90
19389;DHT22;9830;41.876;23.474;2023-02-28T03:31:10;3.60;99.90
19389;DHT22;9830;41.876;23.474;2023-02-28T03:33:22;3.60;99.90
19389;DHT22;9830;41.876;23.474;2023-02-28T03:36:04;3.50;99.90
19389;DHT22;9830;41.876;23.474;2023-02-28T03:38:40;3.50;99.90
19389;DHT22;9830;41.876;23.474;2023-02-28T03:41:19;3.50;99.90
19389;DHT22;9830;41.876;23.474;2023-02-28T03:44:12;3.60;99.90
19389;DHT22;9830;41.876;23.474;2023-02-28T03:46:38;3.60;99.90
19389;DHT22;9830;41.876;23.474;2023-02-28T03:49:14;3.70;99.90
19389;DHT22;9830;41.876;23.474;2023-02-28T03:51:43;3.60;99.90
19389;DHT22;9830;41.876;23.474;2023-02-28T03:54:22;3.60;99.90
19389;DHT22;9830;41.876;23.474;2023-02-28T03:56:54;3.70;99.90
19389;DHT22;9830;41.876;23.474;2023-02-28T03:59:37;3.80;99.90
19389;DHT22;9830;41.876;23.474;2023-02-28T04:02:05;3.90;99.90
19389;DHT22;9830;41.876;23.474;2023-02-28T04:04:31;3.90;99.90
19389;DHT22;9830;41.876;23.474;2023-02-28T04:07:07;3.90;99.90
19389;DHT22;9830;41.876;23.474;2023-02-28T04:09:34;3.90;99.90
19389;DHT22;9830;41.876;23.474;2023-02-28T04:12:00;3.90;99.90
19389;DHT22;9830;41.876;23.474;2023-02-28T04:14:26;3.90;99.90
19389;DHT22;9830;41.876;23.474;2023-02-28T04:16:52;3.90;99.90
19389;DHT22;9830;41.876;23.474;2023-02-28T04:19:18;3.80;99.90
19389;DHT22;9830;41.876;23.474;2023-02-28T04:21:46;3.90;99.90
19389;DHT22;9830;41.876;23.474;2023-02-28T04:24:14;3.80;99.90
19389;DHT22;9830;41.876;23.474;2023-02-28T04:26:41;3.80;99.90
19389;DHT22;9830;41.876;23.474;2023-02-28T04:29:10;3.70;99.90
19389;DHT22;9830;41.876;23.474;2023-02-28T04:31:36;3.70;99.90
19389;DHT22;9830;41.876;23.474;2023-02-28T04:34:02;3.70;99.90
19389;DHT22;9830;41.876;23.474;2023-02-28T04:36:28;3.80;99.90
19389;DHT22;9830;41.876;23.474;2023-02-28T04:38:54;3.90;99.90
19389;DHT22;9830;41.876;23.474;2023-02-28T04:41:21;3.90;99.90
19389;DHT22;9830;41.876;23.474;2023-02-28T04:43:48;3.90;99.90
19389;DHT22;9830;41.876;23.474;2023-02-28T04:46:13;3.90;99.90
19389;DHT22;9830;41.876;23.474;2023-02-28T04:48:40;4.00;99.90
19389;DHT22;9830;41.876;23.474;2023-02-28T04:51:08;4.00;99.90
19389;DHT22;9830;41.876;23.474;2023-02-28T04:53:36;4.00;99.90
19389;DHT22;9830;41.876;23.474;2023-02-28T04:56:02;4.10;99.90
19389;DHT22;9830;41.876;23.474;2023-02-28T04:58:28;4.10;99.90
19389;DHT22;9830;41.876;23.474;2023-02-28T05:01:04;4.10;99.90
19389;DHT22;9830;41.876;23.474;2023-02-28T05:03:30;4.20;99.90
19389;DHT22;9830;41.876;23.474;2023-02-28T05:05:56;4.30;99.90
19389;DHT22;9830;41.876;23.474;2023-02-28T05:08:21;4.30;99.90
19389;DHT22;9830;41.876;23.474;2023-02-28T05:10:47;4.30;99.90
19389;DHT22;9830;41.876;23.474;2023-02-28T05:13:13;4.30;99.90
19389;DHT22;9830;41.876;23.474;2023-02-28T05:15:38;4.40;99.90
19389;DHT22;9830;41.876;23.474;2023-02-28T05:18:04;4.30;99.90
19389;DHT22;9830;41.876;23.474;2023-02-28T05:20:30;4.40;99.90
19389;DHT22;9830;41.876;23.474;2023-02-28T05:22:57;4.40;99.90
19389;DHT22;9830;41.876;23.474;2023-02-28T05:25:23;4.40;99.90
19389;DHT22;9830;41.876;23.474;2023-02-28T05:27:49;4.60;99.90
19389;DHT22;9830;41.876;23.474;2023-02-28T05:30:15;4.70;99.90
19389;DHT22;9830;41.876;23.474;2023-02-28T05:32:41;4.70;99.90
19389;DHT22;9830;41.876;23.474;2023-02-28T05:35:11;4.70;99.90
19389;DHT22;9830;41.876;23.474;2023-02-28T05:37:38;4.70;99.90
19389;DHT22;9830;41.876;23.474;2023-02-28T05:40:05;4.80;99.90
19389;DHT22;9830;41.876;23.474;2023-02-28T05:42:41;4.90;99.90
19389;DHT22;9830;41.876;23.474;2023-02-28T05:45:07;5.00;99.90
19389;DHT22;9830;41.876;23.474;2023-02-28T05:47:34;5.10;99.90
19389;DHT22;9830;41.876;23.474;2023-02-28T05:50:00;5.20;99.90
19389;DHT22;9830;41.876;23.474;2023-02-28T05:52:26;5.40;99.90
19389;DHT22;9830;41.876;23.474;2023-02-28T05:54:52;5.60;99.90
19389;DHT22;9830;41.876;23.474;2023-02-28T05:57:18;5.70;99.90
19389;DHT22;9830;41.876;23.474;2023-02-28T05:59:44;5.60;99.90
19389;DHT22;9830;41.876;23.474;2023-02-28T06:02:15;5.70;99.90
19389;DHT22;9830;41.876;23.474;2023-02-28T06:04:41;6.00;99.90
19389;DHT22;9830;41.876;23.474;2023-02-28T06:07:07;6.00;99.90
19389;DHT22;9830;41.876;23.474;2023-02-28T06:09:33;6.00;99.90
19389;DHT22;9830;41.876;23.474;2023-02-28T06:12:00;6.20;99.90
19389;DHT22;9830;41.876;23.474;2023-02-28T06:14:28;6.20;99.90
19389;DHT22;9830;41.876;23.474;2023-02-28T06:16:53;6.20;99.90
19389;DHT22;9830;41.876;23.474;2023-02-28T06:19:19;6.20;99.90
19389;DHT22;9830;41.876;23.474;2023-02-28T06:21:49;6.60;99.90
19389;DHT22;9830;41.876;23.474;2023-02-28T06:24:16;6.60;99.90
19389;DHT22;9830;41.876;23.474;2023-02-28T06:26:41;6.60;99.90
19389;DHT22;9830;41.876;23.474;2023-02-28T06:29:07;6.80;99.90
19389;DHT22;9830;41.876;23.474;2023-02-28T06:31:34;6.80;99.90
19389;DHT22;9830;41.876;23.474;2023-02-28T06:33:59;6.90;99.90
19389;DHT22;9830;41.876;23.474;2023-02-28T06:36:25;6.90;99.90
19389;DHT22;9830;41.876;23.474;2023-02-28T06:38:52;6.90;99.90
19389;DHT22;9830;41.876;23.474;2023-02-28T06:41:25;6.70;99.90
19389;DHT22;9830;41.876;23.474;2023-02-28T06:43:51;6.70;99.90
19389;DHT22;9830;41.876;23.474;2023-02-28T06:46:18;6.90;99.90
19389;DHT22;9830;41.876;23.474;2023-02-28T06:48:44;6.60;99.90
19389;DHT22;9830;41.876;23.474;2023-02-28T06:51:16;6.90;99.90
19389;DHT22;9830;41.876;23.474;2023-02-28T06:53:42;7.00;99.90
19389;DHT22;9830;41.876;23.474;2023-02-28T06:56:10;7.20;99.90
19389;DHT22;9830;41.876;23.474;2023-02-28T06:58:37;7.30;99.90
19389;DHT22;9830;41.876;23.474;2023-02-28T07:01:03;7.60;99.90
19389;DHT22;9830;41.876;23.474;2023-02-28T07:03:30;7.50;99.90
19389;DHT22;9830;41.876;23.474;2023-02-28T07:05:55;7.30;99.90
19389;DHT22;9830;41.876;23.474;2023-02-28T07:08:25;7.50;99.90
19389;DHT22;9830;41.876;23.474;2023-02-28T07:10:55;7.70;99.90
19389;DHT22;9830;41.876;23.474;2023-02-28T07:13:22;7.60;99.90
19389;DHT22;9830;41.876;23.474;2023-02-28T07:15:59;7.70;99.90
19389;DHT22;9830;41.876;23.474;2023-02-28T07:18:25;7.80;99.90
19389;DHT22;9830;41.876;23.474;2023-02-28T07:20:52;8.20;99.90
19389;DHT22;9830;41.876;23.474;2023-02-28T07:23:18;8.50;99.90
19389;DHT22;9830;41.876;23.474;2023-02-28T07:25:44;8.80;99.90
19389;DHT22;9830;41.876;23.474;2023-02-28T07:28:11;8.90;99.90
19389;DHT22;9830;41.876;23.474;2023-02-28T07:30:37;9.70;99.90
19389;DHT22;9830;41.876;23.474;2023-02-28T07:33:02;10.10;99.90
19389;DHT22;9830;41.876;23.474;2023-02-28T07:35:29;10.60;99.90
19389;DHT22;9830;41.876;23.474;2023-02-28T07:37:57;10.70;99.90
19389;DHT22;9830;41.876;23.474;2023-02-28T07:40:22;10.90;99.90
19389;DHT22;9830;41.876;23.474;2023-02-28T07:42:48;10.60;99.90
19389;DHT22;9830;41.876;23.474;2023-02-28T07:45:14;10.30;99.90
19389;DHT22;9830;41.876;23.474;2023-02-28T07:47:40;10.30;99.90
19389;DHT22;9830;41.876;23.474;2023-02-28T07:50:08;10.50;99.90
19389;DHT22;9830;41.876;23.474;2023-02-28T07:52:35;11.00;99.90
19389;DHT22;9830;41.876;23.474;2023-02-28T07:55:01;12.60;99.90
19389;DHT22;9830;41.876;23.474;2023-02-28T07:57:26;13.10;99.90
19389;DHT22;9830;41.876;23.474;2023-02-28T07:59:52;13.80;99.90
19389;DHT22;9830;41.876;23.474;2023-02-28T08:02:18;13.60;99.90
19389;DHT22;9830;41.876;23.474;2023-02-28T08:04:45;13.80;99.90
19389;DHT22;9830;41.876;23.474;2023-02-28T08:07:12;14.00;99.90
19389;DHT22;9830;41.876;23.474;2023-02-28T08:09:40;13.60;99.90
19389;DHT22;9830;41.876;23.474;2023-02-28T08:12:06;14.10;99.90
19389;DHT22;9830;41.876;23.474;2023-02-28T08:14:33;14.70;99.90
19389;DHT22;9830;41.876;23.474;2023-02-28T08:16:59;14.40;99.90
19389;DHT22;9830;41.876;23.474;2023-02-28T08:19:25;14.80;99.90
19389;DHT22;9830;41.876;23.474;2023-02-28T08:21:50;15.10;98.20
19389;DHT22;9830;41.876;23.474;2023-02-28T08:24:16;14.90;98.20
19389;DHT22;9830;41.876;23.474;2023-02-28T08:26:41;14.30;99.70
19389;DHT22;9830;41.876;23.474;2023-02-28T08:29:07;14.00;99.90
19389;DHT22;9830;41.876;23.474;2023-02-28T08:31:33;14.70;97.70
19389;DHT22;9830;41.876;23.474;2023-02-28T08:34:07;14.60;99.60
19389;DHT22;9830;41.876;23.474;2023-02-28T08:36:33;14.90;99.40
19389;DHT22;9830;41.876;23.474;2023-02-28T08:38:59;15.10;99.90
19389;DHT22;9830;41.876;23.474;2023-02-28T08:41:25;15.50;98.30
19389;DHT22;9830;41.876;23.474;2023-02-28T08:43:51;15.50;95.90
19389;DHT22;9830;41.876;23.474;2023-02-28T08:46:17;17.20;93.10
19389;DHT22;9830;41.876;23.474;2023-02-28T08:48:43;17.60;84.40
19389;DHT22;9830;41.876;23.474;2023-02-28T08:51:14;17.60;86.60
19389;DHT22;9830;41.876;23.474;2023-02-28T08:53:47;17.80;84.20
19389;DHT22;9830;41.876;23.474;2023-02-28T08:56:16;18.30;81.00
19389;DHT22;9830;41.876;23.474;2023-02-28T08:58:45;18.00;79.50
19389;DHT22;9830;41.876;23.474;2023-02-28T09:01:15;18.30;78.10
19389;DHT22;9830;41.876;23.474;2023-02-28T09:03:42;18.20;78.30
19389;DHT22;9830;41.876;23.474;2023-02-28T09:06:09;18.00;78.30
19389;DHT22;9830;41.876;23.474;2023-02-28T09:08:35;17.00;90.00
19389;DHT22;9830;41.876;23.474;2023-02-28T09:11:01;17.40;84.90
19389;DHT22;9830;41.876;23.474;2023-02-28T09:13:27;17.60;82.90
19389;DHT22;9830;41.876;23.474;2023-02-28T09:15:54;18.10;78.60
19389;DHT22;9830;41.876;23.474;2023-02-28T09:18:20;17.70;78.30
19389;DHT22;9830;41.876;23.474;2023-02-28T09:20:46;16.60;88.30
19389;DHT22;9830;41.876;23.474;2023-02-28T09:23:12;16.60;83.70
19389;DHT22;9830;41.876;23.474;2023-02-28T09:25:49;16.20;89.50
19389;DHT22;9830;41.876;23.474;2023-02-28T09:28:15;15.70;93.00
19389;DHT22;9830;41.876;23.474;2023-02-28T09:30:41;16.10;92.50
19389;DHT22;9830;41.876;23.474;2023-02-28T09:33:07;17.10;80.90
19389;DHT22;9830;41.876;23.474;2023-02-28T09:35:33;16.90;83.50
19389;DHT22;9830;41.876;23.474;2023-02-28T09:37:58;16.40;87.30
19389;DHT22;9830;41.876;23.474;2023-02-28T09:40:26;16.40;84.90
19389;DHT22;9830;41.876;23.474;2023-02-28T09:42:54;16.00;92.80
19389;DHT22;9830;41.876;23.474;2023-02-28T09:45:38;16.50;81.90
19389;DHT22;9830;41.876;23.474;2023-02-28T09:48:16;16.40;86.20
19389;DHT22;9830;41.876;23.474;2023-02-28T09:50:49;16.30;86.60
19389;DHT22;9830;41.876;23.474;2023-02-28T09:53:29;16.50;88.30
19389;DHT22;9830;41.876;23.474;2023-02-28T09:56:18;16.40;84.70
19389;DHT22;9830;41.876;23.474;2023-02-28T10:09:45;15.20;93.60
19389;DHT22;9830;41.876;23.474;2023-02-28T10:12:12;15.20;93.20
19389;DHT22;9830;41.876;23.474;2023-02-28T10:14:44;15.00;95.90
19389;DHT22;9830;41.876;23.474;2023-02-28T10:17:13;15.10;97.40
19389;DHT22;9830;41.876;23.474;2023-02-28T10:22:21;15.60;92.30
19389;DHT22;9830;41.876;23.474;2023-02-28T10:24:51;15.30;93.60
19389;DHT22;9830;41.876;23.474;2023-02-28T10:27:26;15.70;91.90
19389;DHT22;9830;41.876;23.474;2023-02-28T10:29:55;16.00;91.00
19389;DHT22;9830;41.876;23.474;2023-02-28T10:32:25;16.20;90.40
19389;DHT22;9830;41.876;23.474;2023-02-28T10:35:10;16.90;90.70
19389;DHT22;9830;41.876;23.474;2023-02-28T10:37:41;17.30;81.90
19389;DHT22;9830;41.876;23.474;2023-02-28T10:40:34;17.70;76.40
19389;DHT22;9830;41.876;23.474;2023-02-28T10:43:24;17.10;81.90
19389;DHT22;9830;41.876;23.474;2023-02-28T10:45:56;16.30;91.50
19389;DHT22;9830;41.876;23.474;2023-02-28T10:56:14;15.10;95.70
19389;DHT22;9830;41.876;23.474;2023-02-28T11:01:35;14.50;99.00
19389;DHT22;9830;41.876;23.474;2023-02-28T11:04:01;14.60;98.90
19389;DHT22;9830;41.876;23.474;2023-02-28T11:06:31;14.50;99.50
19389;DHT22;9830;41.876;23.474;2023-02-28T11:08:59;14.30;99.90
19389;DHT22;9830;41.876;23.474;2023-02-28T11:11:28;14.60;99.90
19389;DHT22;9830;41.876;23.474;2023-02-28T11:13:58;14.80;99.30
19389;DHT22;9830;41.876;23.474;2023-02-28T11:16:37;15.30;97.80
19389;DHT22;9830;41.876;23.474;2023-02-28T11:19:05;15.50;97.00
19389;DHT22;9830;41.876;23.474;2023-02-28T11:21:37;15.70;96.10
19389;DHT22;9830;41.876;23.474;2023-02-28T11:26:44;15.30;98.20
19389;DHT22;9830;41.876;23.474;2023-02-28T11:34:27;15.70;95.70
19389;DHT22;9830;41.876;23.474;2023-02-28T11:36:55;15.60;96.00
19389;DHT22;9830;41.876;23.474;2023-02-28T11:39:22;15.30;98.70
19389;DHT22;9830;41.876;23.474;2023-02-28T11:42:07;15.20;98.10
19389;DHT22;9830;41.876;23.474;2023-02-28T11:47:32;15.20;98.30
19389;DHT22;9830;41.876;23.474;2023-02-28T12:03:31;14.40;99.90
19389;DHT22;9830;41.876;23.474;2023-02-28T12:09:08;14.30;99.90
19389;DHT22;9830;41.876;23.474;2023-02-28T12:11:54;14.20;99.90
19389;DHT22;9830;41.876;23.474;2023-02-28T12:22:29;14.00;99.90
19389;DHT22;9830;41.876;23.474;2023-02-28T12:27:34;14.30;99.90
19389;DHT22;9830;41.876;23.474;2023-02-28T12:32:42;14.30;99.90
19389;DHT22;9830;41.876;23.474;2023-02-28T12:38:05;14.50;99.90
19389;DHT22;9830;41.876;23.474;2023-02-28T12:40:45;14.60;99.90
19389;DHT22;9830;41.876;23.474;2023-02-28T12:43:15;14.70;99.90
19389;DHT22;9830;41.876;23.474;2023-02-28T12:45:50;14.70;99.90
19389;DHT22;9830;41.876;23.474;2023-02-28T12:51:05;14.70;99.90
19389;DHT22;9830;41.876;23.474;2023-02-28T12:59:03;14.40;99.90
19389;DHT22;9830;41.876;23.474;2023-02-28T13:01:57;14.30;99.90
19389;DHT22;9830;41.876;23.474;2023-02-28T13:09:54;14.20;99.90
19389;DHT22;9830;41.876;23.474;2023-02-28T13:12:22;14.30;99.90
19389;DHT22;9830;41.876;23.474;2023-02-28T13:14:49;14.20;99.90
19389;DHT22;9830;41.876;23.474;2023-02-28T13:17:20;14.00;99.90
19389;DHT22;9830;41.876;23.474;2023-02-28T13:19:57;13.90;99.90
19389;DHT22;9830;41.876;23.474;2023-02-28T13:22:42;13.80;99.90
19389;DHT22;9830;41.876;23.474;2023-02-28T13:27:51;13.50;99.90
19389;DHT22;9830;41.876;23.474;2023-02-28T13:33:33;13.30;99.90
19389;DHT22;9830;41.876;23.474;2023-02-28T13:38:47;13.00;99.90
19389;DHT22;9830;41.876;23.474;2023-02-28T13:46:35;12.50;99.90
19389;DHT22;9830;41.876;23.474;2023-02-28T13:57:53;11.80;99.90
19389;DHT22;9830;41.876;23.474;2023-02-28T14:00:52;11.50;99.90
19389;DHT22;9830;41.876;23.474;2023-02-28T14:11:42;10.30;99.90
19389;DHT22;9830;41.876;23.474;2023-02-28T14:14:10;10.00;99.90
19389;DHT22;9830;41.876;23.474;2023-02-28T14:16:55;9.90;99.90
19389;DHT22;9830;41.876;23.474;2023-02-28T14:19:28;9.70;99.90
19389;DHT22;9830;41.876;23.474;2023-02-28T14:28:11;9.30;99.90
19389;DHT22;9830;41.876;23.474;2023-02-28T14:36:03;9.00;99.90
19389;DHT22;9830;41.876;23.474;2023-02-28T14:38:56;9.00;99.90
19389;DHT22;9830;41.876;23.474;2023-02-28T14:41:38;9.00;99.90
19389;DHT22;9830;41.876;23.474;2023-02-28T14:44:20;9.00;99.90
19389;DHT22;9830;41.876;23.474;2023-02-28T14:47:00;9.00;99.90
19389;DHT22;9830;41.876;23.474;2023-02-28T14:49:42;9.00;99.90
19389;DHT22;9830;41.876;23.474;2023-02-28T14:54:38;8.90;99.90
19389;DHT22;9830;41.876;23.474;2023-02-28T14:57:05;8.80;99.90
19389;DHT22;9830;41.876;23.474;2023-02-28T14:59:32;8.80;99.90
19389;DHT22;9830;41.876;23.474;2023-02-28T15:02:37;8.80;99.90
19389;DHT22;9830;41.876;23.474;2023-02-28T15:05:33;8.70;99.90
19389;DHT22;9830;41.876;23.474;2023-02-28T15:08:14;8.70;99.90
19389;DHT22;9830;41.876;23.474;2023-02-28T15:13:17;8.70;99.90
19389;DHT22;9830;41.876;23.474;2023-02-28T15:15:59;8.70;99.90
19389;DHT22;9830;41.876;23.474;2023-02-28T15:21:45;8.50;99.90
19389;DHT22;9830;41.876;23.474;2023-02-28T15:26:52;8.40;99.90
19389;DHT22;9830;41.876;23.474;2023-02-28T15:29:23;8.40;99.90
19389;DHT22;9830;41.876;23.474;2023-02-28T15:31:54;8.30;99.90
19389;DHT22;9830;41.876;23.474;2023-02-28T15:34:43;8.30;99.90
19389;DHT22;9830;41.876;23.474;2023-02-28T15:39:52;8.30;99.90
19389;DHT22;9830;41.876;23.474;2023-02-28T15:42:21;8.20;99.90
19389;DHT22;9830;41.876;23.474;2023-02-28T15:44:47;8.20;99.90
19389;DHT22;9830;41.876;23.474;2023-02-28T15:47:20;8.10;99.90
19389;DHT22;9830;41.876;23.474;2023-02-28T15:55:20;8.10;99.90
19389;DHT22;9830;41.876;23.474;2023-02-28T15:57:51;8.00;99.90
19389;DHT22;9830;41.876;23.474;2023-02-28T16:00:22;8.00;99.90
19389;DHT22;9830;41.876;23.474;2023-02-28T16:02:48;8.00;99.90
19389;DHT22;9830;41.876;23.474;2023-02-28T16:07:47;8.00;99.90
19389;DHT22;9830;41.876;23.474;2023-02-28T16:10:14;8.00;99.90
19389;DHT22;9830;41.876;23.474;2023-02-28T16:12:40;8.00;99.90
19389;DHT22;9830;41.876;23.474;2023-02-28T16:15:19;7.90;99.90
19389;DHT22;9830;41.876;23.474;2023-02-28T16:17:45;7.90;99.90
19389;DHT22;9830;41.876;23.474;2023-02-28T16:20:18;7.90;99.90
19389;DHT22;9830;41.876;23.474;2023-02-28T16:22:44;7.90;99.90
19389;DHT22;9830;41.876;23.474;2023-02-28T16:25:16;7.90;99.90
19389;DHT22;9830;41.876;23.474;2023-02-28T16:27:43;7.90;99.90
19389;DHT22;9830;41.876;23.474;2023-02-28T16:30:21;7.90;99.90
19389;DHT22;9830;41.876;23.474;2023-02-28T16:32:49;7.90;99.90
19389;DHT22;9830;41.876;23.474;2023-02-28T16:35:15;7.90;99.90
19389;DHT22;9830;41.876;23.474;2023-02-28T16:37:41;7.90;99.90
19389;DHT22;9830;41.876;23.474;2023-02-28T16:40:19;7.80;99.90
19389;DHT22;9830;41.876;23.474;2023-02-28T16:42:53;7.80;99.90
19389;DHT22;9830;41.876;23.474;2023-02-28T16:45:24;7.80;99.90
19389;DHT22;9830;41.876;23.474;2023-02-28T16:47:50;7.70;99.90
19389;DHT22;9830;41.876;23.474;2023-02-28T16:50:21;7.70;99.90
19389;DHT22;9830;41.876;23.474;2023-02-28T16:52:48;7.70;99.90
19389;DHT22;9830;41.876;23.474;2023-02-28T16:55:15;7.60;99.90
19389;DHT22;9830;41.876;23.474;2023-02-28T16:57:41;7.60;99.90
19389;DHT22;9830;41.876;23.474;2023-02-28T17:00:11;7.60;99.90
19389;DHT22;9830;41.876;23.474;2023-02-28T17:02:37;7.60;99.90
19389;DHT22;9830;41.876;23.474;2023-02-28T17:05:04;7.60;99.90
19389;DHT22;9830;41.876;23.474;2023-02-28T17:07:29;7.60;99.90
19389;DHT22;9830;41.876;23.474;2023-02-28T17:09:55;7.50;99.90
19389;DHT22;9830;41.876;23.474;2023-02-28T17:12:21;7.50;99.90
19389;DHT22;9830;41.876;23.474;2023-02-28T17:14:46;7.40;99.90
19389;DHT22;9830;41.876;23.474;2023-02-28T17:17:21;7.40;99.90
19389;DHT22;9830;41.876;23.474;2023-02-28T17:19:47;7.40;99.90
19389;DHT22;9830;41.876;23.474;2023-02-28T17:22:13;7.40;99.90
19389;DHT22;9830;41.876;23.474;2023-02-28T17:24:39;7.40;99.90
19389;DHT22;9830;41.876;23.474;2023-02-28T17:27:04;7.40;99.90
19389;DHT22;9830;41.876;23.474;2023-02-28T17:29:31;7.40;99.90
19389;DHT22;9830;41.876;23.474;2023-02-28T17:31:56;7.40;99.90
19389;DHT22;9830;41.876;23.474;2023-02-28T17:34:22;7.40;99.90
19389;DHT22;9830;41.876;23.474;2023-02-28T17:36:49;7.40;99.90
19389;DHT22;9830;41.876;23.474;2023-02-28T17:39:16;7.40;99.90
19389;DHT22;9830;41.876;23.474;2023-02-28T17:41:53;7.40;99.90
19389;DHT22;9830;41.876;23.474;2023-02-28T17:44:20;7.40;99.90
19389;DHT22;9830;41.876;23.474;2023-02-28T17:46:46;7.40;99.90
19389;DHT22;9830;41.876;23.474;2023-02-28T17:49:12;7.40;99.90
19389;DHT22;9830;41.876;23.474;2023-02-28T17:51:38;7.40;99.90
19389;DHT22;9830;41.876;23.474;2023-02-28T17:54:04;7.40;99.90
19389;DHT22;9830;41.876;23.474;2023-02-28T17:56:30;7.50;99.90
19389;DHT22;9830;41.876;23.474;2023-02-28T17:58:57;7.50;99.90
19389;DHT22;9830;41.876;23.474;2023-02-28T18:01:23;7.50;99.90
19389;DHT22;9830;41.876;23.474;2023-02-28T18:03:53;7.50;99.90
19389;DHT22;9830;41.876;23.474;2023-02-28T18:06:23;7.50;99.90
19389;DHT22;9830;41.876;23.474;2023-02-28T18:08:50;7.50;99.90
19389;DHT22;9830;41.876;23.474;2023-02-28T18:11:20;7.50;99.90
19389;DHT22;9830;41.876;23.474;2023-02-28T18:13:51;7.50;99.90
19389;DHT22;9830;41.876;23.474;2023-02-28T18:16:19;7.50;99.90
19389;DHT22;9830;41.876;23.474;2023-02-28T18:18:45;7.50;99.90
19389;DHT22;9830;41.876;23.474;2023-02-28T18:21:12;7.50;99.90
19389;DHT22;9830;41.876;23.474;2023-02-28T18:23:39;7.50;99.90
19389;DHT22;9830;41.876;23.474;2023-02-28T18:26:16;7.50;99.90
19389;DHT22;9830;41.876;23.474;2023-02-28T18:28:43;7.50;99.90
19389;DHT22;9830;41.876;23.474;2023-02-28T18:31:11;7.50;99.90
19389;DHT22;9830;41.876;23.474;2023-02-28T18:33:37;7.40;99.90
19389;DHT22;9830;41.876;23.474;2023-02-28T18:36:04;7.40;99.90
19389;DHT22;9830;41.876;23.474;2023-02-28T18:38:30;7.40;99.90
19389;DHT22;9830;41.876;23.474;2023-02-28T18:40:59;7.40;99.90
19389;DHT22;9830;41.876;23.474;2023-02-28T18:43:26;7.50;99.90
19389;DHT22;9830;41.876;23.474;2023-02-28T18:45:52;7.60;99.90
19389;DHT22;9830;41.876;23.474;2023-02-28T18:48:18;7.60;99.90
19389;DHT22;9830;41.876;23.474;2023-02-28T18:50:49;7.60;99.90